createdAt,value
2022-11-27T00:00:20.047Z,0.00
2022-11-27T00:05:24.938Z,0.00
2022-11-27T00:10:30.921Z,0.00
2022-11-27T00:15:19.632Z,0.00
2022-11-27T00:20:29.716Z,0.00
2022-11-27T00:25:31.771Z,0.00
2022-11-27T00:30:20.806Z,0.00
2022-11-27T00:35:26.997Z,0.00
2022-11-27T00:40:43.180Z,0.00
2022-11-27T00:45:21.944Z,0.00
2022-11-27T00:50:28.021Z,0.00
2022-11-27T00:55:17.079Z,0.00
2022-11-27T01:00:24.109Z,0.00
2022-11-27T01:05:28.536Z,0.00
2022-11-27T01:10:17.653Z,0.00
2022-11-27T01:15:23.393Z,0.00
2022-11-27T01:20:30.364Z,0.00
2022-11-27T01:25:20.091Z,0.00
2022-11-27T01:30:24.544Z,0.00
2022-11-27T01:35:32.958Z,0.00
2022-11-27T01:40:20.878Z,0.00
2022-11-27T01:45:25.691Z,0.00
2022-11-27T01:50:31.894Z,0.00
2022-11-27T01:55:20.833Z,0.00
2022-11-27T02:00:28.080Z,0.00
2022-11-27T02:05:33.570Z,0.00
2022-11-27T02:10:21.306Z,0.00
2022-11-27T02:15:27.082Z,0.00
2022-11-27T02:20:16.766Z,0.00
2022-11-27T02:25:27.989Z,0.00
2022-11-27T02:30:28.178Z,0.00
2022-11-27T02:35:17.258Z,0.00
2022-11-27T02:40:42.929Z,0.00
2022-11-27T02:45:29.392Z,0.00
2022-11-27T02:50:18.353Z,0.00
2022-11-27T02:55:24.440Z,0.00
2022-11-27T03:00:31.473Z,0.00
2022-11-27T03:05:19.814Z,0.00
2022-11-27T03:10:25.928Z,0.00
2022-11-27T03:15:31.653Z,0.00
2022-11-27T03:20:21.380Z,0.00
2022-11-27T03:25:26.845Z,0.00
2022-11-27T03:30:16.547Z,0.00
2022-11-27T03:35:21.823Z,0.00
2022-11-27T03:40:29.446Z,0.00
2022-11-27T03:45:17.011Z,0.00
2022-11-27T03:50:23.005Z,0.00
2022-11-27T03:55:29.024Z,0.00
2022-11-27T04:00:18.694Z,0.00
2022-11-27T04:05:24.846Z,0.00
2022-11-27T04:10:29.810Z,0.00
2022-11-27T04:15:18.258Z,0.00
2022-11-27T04:20:28.525Z,0.00
2022-11-27T04:25:30.483Z,0.00
2022-11-27T04:30:19.414Z,0.00
2022-11-27T04:35:25.509Z,0.00
2022-11-27T04:40:34.401Z,0.00
2022-11-27T04:45:20.836Z,0.00
2022-11-27T04:50:26.655Z,0.00
2022-11-27T04:55:32.728Z,0.00
2022-11-27T05:00:22.710Z,0.00
2022-11-27T05:05:27.262Z,0.00
2022-11-27T05:10:16.211Z,0.00
2022-11-27T05:15:21.906Z,0.00
2022-11-27T05:20:29.474Z,0.00
2022-11-27T05:25:17.039Z,0.00
2022-11-27T05:30:23.183Z,0.00
2022-11-27T05:35:29.173Z,0.00
2022-11-27T05:40:30.436Z,0.00
2022-11-27T05:45:24.245Z,0.00
2022-11-27T05:50:30.411Z,0.00
2022-11-27T05:55:19.342Z,0.00
2022-11-27T06:00:26.359Z,0.00
2022-11-27T06:05:31.071Z,0.00
2022-11-27T06:10:19.974Z,0.00
2022-11-27T06:15:26.587Z,0.00
2022-11-27T06:20:34.251Z,0.00
2022-11-27T06:25:21.705Z,0.00
2022-11-27T06:30:27.846Z,0.00
2022-11-27T06:35:16.834Z,0.00
2022-11-27T06:40:24.826Z,0.44
2022-11-27T06:45:29.084Z,1.39
2022-11-27T06:50:17.991Z,1.94
2022-11-27T06:55:24.057Z,2.77
2022-11-27T07:00:30.761Z,3.89
2022-11-27T07:05:18.984Z,4.86
2022-11-27T07:10:24.734Z,5.38
2022-11-27T07:15:30.213Z,7.52
2022-11-27T07:20:20.131Z,10.52
2022-11-27T07:25:25.370Z,11.88
2022-11-27T07:30:31.471Z,14.67
2022-11-27T07:35:20.420Z,18.59
2022-11-27T07:40:27.666Z,21.26
2022-11-27T07:45:32.694Z,20.86
2022-11-27T07:50:21.657Z,22.00
2022-11-27T07:55:27.709Z,26.19
2022-11-27T08:00:17.621Z,29.85
2022-11-27T08:05:22.211Z,36.93
2022-11-27T08:10:28.154Z,31.80
2022-11-27T08:15:17.735Z,28.82
2022-11-27T08:20:25.198Z,26.66
2022-11-27T08:25:30.000Z,29.38
2022-11-27T08:30:19.020Z,32.46
2022-11-27T08:35:24.998Z,38.05
2022-11-27T08:40:32.601Z,41.19
2022-11-27T08:45:20.347Z,41.27
2022-11-27T08:50:26.211Z,41.09
2022-11-27T08:55:32.343Z,44.22
2022-11-27T09:00:51.217Z,44.39
2022-11-27T09:05:27.195Z,46.03
2022-11-27T09:10:16.318Z,42.86
2022-11-27T09:15:22.405Z,45.12
2022-11-27T09:20:56.562Z,49.40
2022-11-27T09:25:17.506Z,50.92
2022-11-27T09:30:23.706Z,47.82
2022-11-27T09:35:29.703Z,51.11
2022-11-27T09:40:19.729Z,48.91
2022-11-27T09:45:24.760Z,47.32
2022-11-27T09:50:31.892Z,47.68
2022-11-27T09:55:19.830Z,50.71
2022-11-27T10:00:35.590Z,51.65
2022-11-27T10:05:31.798Z,53.28
2022-11-27T10:10:20.509Z,53.65
2022-11-27T10:15:26.131Z,54.18
2022-11-27T10:20:34.282Z,52.63
2022-11-27T10:25:21.223Z,53.73
2022-11-27T10:30:27.328Z,55.70
2022-11-27T10:35:16.318Z,56.10
2022-11-27T10:40:34.945Z,56.78
2022-11-27T10:45:28.504Z,57.01
2022-11-27T10:50:17.434Z,62.85
2022-11-27T10:55:23.648Z,62.69
2022-11-27T11:00:30.460Z,66.77
2022-11-27T11:06:18.671Z,47.36
2022-11-27T11:10:24.523Z,46.13
2022-11-27T11:15:31.334Z,60.62
2022-11-27T11:20:20.866Z,60.92
2022-11-27T11:25:25.530Z,62.36
2022-11-27T11:30:32.409Z,71.14
2022-11-27T11:35:20.549Z,62.85
2022-11-27T11:40:28.056Z,52.42
2022-11-27T11:45:33.330Z,49.05
2022-11-27T11:50:21.742Z,48.46
2022-11-27T11:55:27.918Z,53.06
2022-11-27T12:00:17.843Z,50.73
2022-11-27T12:05:22.302Z,51.51
2022-11-27T12:10:28.254Z,50.66
2022-11-27T12:15:17.868Z,55.00
2022-11-27T12:20:39.100Z,49.66
2022-11-27T12:25:30.011Z,50.91
2022-11-27T12:30:19.035Z,41.43
2022-11-27T12:35:25.117Z,46.43
2022-11-27T12:40:32.257Z,42.34
2022-11-27T12:45:20.318Z,38.77
2022-11-27T12:50:26.290Z,41.38
2022-11-27T12:55:32.472Z,37.25
2022-11-27T13:00:46.190Z,32.85
2022-11-27T13:05:27.252Z,32.94
2022-11-27T13:10:16.324Z,35.90
2022-11-27T13:15:22.626Z,35.51
2022-11-27T13:20:29.640Z,30.28
2022-11-27T13:25:17.694Z,30.83
2022-11-27T13:30:23.752Z,26.28
2022-11-27T13:35:29.800Z,21.76
2022-11-27T13:40:37.348Z,22.51
2022-11-27T13:45:24.957Z,26.99
2022-11-27T13:50:31.673Z,27.63
2022-11-27T13:55:20.016Z,28.16
2022-11-27T14:00:34.520Z,28.53
2022-11-27T14:05:31.538Z,23.99
2022-11-27T14:10:20.685Z,19.80
2022-11-27T14:15:26.172Z,15.61
2022-11-27T14:20:33.224Z,18.54
2022-11-27T14:25:21.375Z,16.06
2022-11-27T14:30:27.357Z,14.86
2022-11-27T14:35:16.414Z,11.74
2022-11-27T14:40:23.373Z,12.27
2022-11-27T14:45:28.532Z,9.44
2022-11-27T14:50:17.587Z,6.61
2022-11-27T14:55:23.682Z,4.47
2022-11-27T15:00:30.587Z,3.73
2022-11-27T15:05:18.049Z,2.78
2022-11-27T15:10:24.385Z,1.52
2022-11-27T15:15:32.285Z,0.50
2022-11-27T15:20:21.288Z,0.02
2022-11-27T15:25:26.045Z,0.00
2022-11-27T15:30:32.145Z,0.00
2022-11-27T15:35:21.060Z,0.00
2022-11-27T15:40:28.015Z,0.00
2022-11-27T15:45:33.354Z,0.00
2022-11-27T15:50:22.269Z,0.00
2022-11-27T15:55:28.350Z,0.00
2022-11-27T16:00:18.093Z,0.00
2022-11-27T16:05:23.595Z,0.00
2022-11-27T16:10:29.361Z,0.00
2022-11-27T16:15:18.624Z,0.00
2022-11-27T16:20:27.981Z,0.00
2022-11-27T16:25:23.577Z,0.00
2022-11-27T16:30:19.726Z,0.00
2022-11-27T16:35:25.787Z,0.00
2022-11-27T16:40:35.552Z,0.00
2022-11-27T16:45:21.697Z,0.00
2022-11-27T16:50:26.916Z,0.00
2022-11-27T16:55:33.024Z,0.00
2022-11-27T17:00:22.680Z,0.00
2022-11-27T17:05:28.240Z,0.00
2022-11-27T17:10:17.001Z,0.00
2022-11-27T17:15:22.224Z,0.00
2022-11-27T17:20:29.571Z,0.00
2022-11-27T17:25:17.276Z,0.00
2022-11-27T17:30:23.327Z,0.00
2022-11-27T17:35:29.394Z,0.00
2022-11-27T17:40:19.540Z,0.00
2022-11-27T17:45:24.558Z,0.00
2022-11-27T17:50:30.569Z,0.00
2022-11-27T17:55:19.620Z,0.00
2022-11-27T18:00:37.905Z,0.00
2022-11-27T18:05:31.054Z,0.00
2022-11-27T18:10:20.152Z,0.00
2022-11-27T18:15:26.800Z,0.00
2022-11-27T18:20:34.385Z,0.00
2022-11-27T18:25:21.920Z,0.00
2022-11-27T18:30:27.968Z,0.00
2022-11-27T18:35:17.038Z,0.00
2022-11-27T18:40:24.323Z,0.00
2022-11-27T18:45:33.341Z,0.00
2022-11-27T18:50:18.289Z,0.00
2022-11-27T18:55:24.307Z,0.00
2022-11-27T19:00:31.257Z,0.00
2022-11-27T19:05:19.239Z,0.00
2022-11-27T19:10:25.286Z,0.00
2022-11-27T19:15:31.557Z,0.00
2022-11-27T19:20:21.018Z,0.00
2022-11-27T19:25:26.692Z,0.00
2022-11-27T19:30:34.122Z,0.00
2022-11-27T19:35:21.837Z,0.00
2022-11-27T19:40:28.981Z,0.00
2022-11-27T19:45:16.878Z,0.00
2022-11-27T19:50:22.887Z,0.00
2022-11-27T19:55:29.811Z,0.00
2022-11-27T20:00:18.550Z,0.00
2022-11-27T20:05:23.981Z,0.00
2022-11-27T20:10:29.985Z,0.00
2022-11-27T20:15:18.099Z,0.00
2022-11-27T20:20:25.712Z,0.00
2022-11-27T20:25:30.225Z,0.00
2022-11-27T20:30:19.230Z,0.00
2022-11-27T20:35:25.357Z,0.00
2022-11-27T20:40:33.599Z,0.00
2022-11-27T20:45:20.762Z,0.00
2022-11-27T20:50:26.480Z,0.00
2022-11-27T20:55:32.657Z,0.00
2022-11-27T21:00:40.664Z,0.00
2022-11-27T21:05:27.372Z,0.00
2022-11-27T21:10:16.510Z,0.00
2022-11-27T21:15:22.810Z,0.00
2022-11-27T21:20:31.733Z,0.00
2022-11-27T21:25:20.440Z,0.00
2022-11-27T21:30:23.887Z,0.00
2022-11-27T21:35:32.687Z,0.00
2022-11-27T21:40:19.916Z,0.00
2022-11-27T21:45:25.160Z,0.00
2022-11-27T21:50:31.149Z,0.00
2022-11-27T21:55:20.103Z,0.00
2022-11-27T22:00:28.612Z,0.00
2022-11-27T22:05:31.372Z,0.00
2022-11-27T22:10:20.332Z,0.00
2022-11-27T22:15:26.484Z,0.00
2022-11-27T22:20:33.612Z,0.00
2022-11-27T22:25:21.438Z,0.00
2022-11-27T22:30:27.716Z,0.00
2022-11-27T22:35:16.522Z,0.00
2022-11-27T22:40:38.511Z,0.00
2022-11-27T22:45:28.705Z,0.00
2022-11-27T22:50:17.789Z,0.00
2022-11-27T22:55:23.765Z,0.00
2022-11-27T23:00:30.752Z,0.00
2022-11-27T23:05:18.893Z,0.00
2022-11-27T23:10:25.063Z,0.00
2022-11-27T23:15:30.404Z,0.00
2022-11-27T23:20:20.455Z,0.00
2022-11-27T23:25:25.320Z,0.00
2022-11-27T23:30:31.323Z,0.00
2022-11-27T23:35:20.427Z,0.00
2022-11-27T23:40:27.543Z,0.00
2022-11-27T23:45:32.597Z,0.00
2022-11-27T23:50:21.501Z,0.00
2022-11-27T23:55:27.707Z,0.00
